sensor_id;sensor_type;location;lat;lon;timestamp;P1;durP1;ratioP1;P2;durP2;ratioP2
10617;SDS011;5356;43.526;26.534;2022-12-11T00:02:23;6.50;;;3.53;;
10617;SDS011;5356;43.526;26.534;2022-12-11T00:04:49;10.30;;;4.03;;
10617;SDS011;5356;43.526;26.534;2022-12-11T00:07:14;7.45;;;4.10;;
10617;SDS011;5356;43.526;26.534;2022-12-11T00:09:40;8.43;;;4.63;;
10617;SDS011;5356;43.526;26.534;2022-12-11T00:12:05;9.10;;;4.55;;
10617;SDS011;5356;43.526;26.534;2022-12-11T00:14:31;10.57;;;5.30;;
10617;SDS011;5356;43.526;26.534;2022-12-11T00:16:57;9.68;;;4.38;;
10617;SDS011;5356;43.526;26.534;2022-12-11T00:19:22;9.35;;;4.47;;
10617;SDS011;5356;43.526;26.534;2022-12-11T00:21:48;8.27;;;4.65;;
10617;SDS011;5356;43.526;26.534;2022-12-11T00:24:13;11.88;;;4.70;;
10617;SDS011;5356;43.526;26.534;2022-12-11T00:26:39;10.38;;;5.03;;
10617;SDS011;5356;43.526;26.534;2022-12-11T00:29:04;7.75;;;4.18;;
10617;SDS011;5356;43.526;26.534;2022-12-11T00:31:32;7.03;;;5.13;;
10617;SDS011;5356;43.526;26.534;2022-12-11T00:33:59;7.50;;;4.70;;
10617;SDS011;5356;43.526;26.534;2022-12-11T00:36:25;7.80;;;4.45;;
10617;SDS011;5356;43.526;26.534;2022-12-11T00:38:51;8.18;;;4.90;;
10617;SDS011;5356;43.526;26.534;2022-12-11T00:41:18;10.23;;;4.90;;
10617;SDS011;5356;43.526;26.534;2022-12-11T00:43:44;14.15;;;5.70;;
10617;SDS011;5356;43.526;26.534;2022-12-11T00:46:10;8.63;;;4.65;;
10617;SDS011;5356;43.526;26.534;2022-12-11T00:48:36;11.65;;;4.90;;
10617;SDS011;5356;43.526;26.534;2022-12-11T00:51:01;7.20;;;4.43;;
10617;SDS011;5356;43.526;26.534;2022-12-11T00:53:27;7.35;;;4.35;;
10617;SDS011;5356;43.526;26.534;2022-12-11T00:55:52;15.27;;;5.13;;
10617;SDS011;5356;43.526;26.534;2022-12-11T00:58:18;12.10;;;4.93;;
10617;SDS011;5356;43.526;26.534;2022-12-11T01:00:43;9.98;;;4.93;;
10617;SDS011;5356;43.526;26.534;2022-12-11T01:03:09;13.10;;;4.95;;
10617;SDS011;5356;43.526;26.534;2022-12-11T01:05:37;10.35;;;4.85;;
10617;SDS011;5356;43.526;26.534;2022-12-11T01:08:02;8.90;;;4.28;;
10617;SDS011;5356;43.526;26.534;2022-12-11T01:10:28;12.15;;;4.53;;
10617;SDS011;5356;43.526;26.534;2022-12-11T01:13:04;9.38;;;4.80;;
10617;SDS011;5356;43.526;26.534;2022-12-11T01:15:32;9.98;;;5.13;;
10617;SDS011;5356;43.526;26.534;2022-12-11T01:18:02;6.85;;;4.53;;
10617;SDS011;5356;43.526;26.534;2022-12-11T01:20:27;11.07;;;4.70;;
10617;SDS011;5356;43.526;26.534;2022-12-11T01:22:55;8.35;;;4.05;;
10617;SDS011;5356;43.526;26.534;2022-12-11T01:25:22;11.75;;;4.63;;
10617;SDS011;5356;43.526;26.534;2022-12-11T01:27:51;6.88;;;4.55;;
10617;SDS011;5356;43.526;26.534;2022-12-11T01:30:18;16.45;;;5.53;;
10617;SDS011;5356;43.526;26.534;2022-12-11T01:32:45;10.43;;;4.32;;
10617;SDS011;5356;43.526;26.534;2022-12-11T01:35:11;10.82;;;4.68;;
10617;SDS011;5356;43.526;26.534;2022-12-11T01:37:36;8.45;;;4.75;;
10617;SDS011;5356;43.526;26.534;2022-12-11T01:40:02;8.88;;;4.05;;
10617;SDS011;5356;43.526;26.534;2022-12-11T01:42:30;9.38;;;5.05;;
10617;SDS011;5356;43.526;26.534;2022-12-11T01:47:45;9.57;;;4.85;;
10617;SDS011;5356;43.526;26.534;2022-12-11T01:50:16;10.40;;;5.50;;
10617;SDS011;5356;43.526;26.534;2022-12-11T01:52:42;14.95;;;4.90;;
10617;SDS011;5356;43.526;26.534;2022-12-11T01:55:11;15.02;;;4.43;;
10617;SDS011;5356;43.526;26.534;2022-12-11T01:57:37;14.80;;;4.90;;
10617;SDS011;5356;43.526;26.534;2022-12-11T02:00:07;12.73;;;5.40;;
10617;SDS011;5356;43.526;26.534;2022-12-11T02:02:33;9.20;;;4.25;;
10617;SDS011;5356;43.526;26.534;2022-12-11T02:05:02;10.45;;;4.25;;
10617;SDS011;5356;43.526;26.534;2022-12-11T02:07:29;12.25;;;4.63;;
10617;SDS011;5356;43.526;26.534;2022-12-11T02:10:01;10.43;;;4.68;;
10617;SDS011;5356;43.526;26.534;2022-12-11T02:12:36;13.35;;;4.32;;
10617;SDS011;5356;43.526;26.534;2022-12-11T02:17:49;8.23;;;5.68;;
10617;SDS011;5356;43.526;26.534;2022-12-11T02:20:31;12.55;;;5.57;;
10617;SDS011;5356;43.526;26.534;2022-12-11T02:28:23;13.98;;;6.18;;
10617;SDS011;5356;43.526;26.534;2022-12-11T02:31:03;8.18;;;4.80;;
10617;SDS011;5356;43.526;26.534;2022-12-11T02:34:17;13.32;;;5.05;;
10617;SDS011;5356;43.526;26.534;2022-12-11T02:36:27;12.30;;;4.82;;
10617;SDS011;5356;43.526;26.534;2022-12-11T02:38:56;11.43;;;5.47;;
10617;SDS011;5356;43.526;26.534;2022-12-11T02:41:25;10.30;;;5.05;;
10617;SDS011;5356;43.526;26.534;2022-12-11T02:43:52;12.25;;;4.45;;
10617;SDS011;5356;43.526;26.534;2022-12-11T02:46:20;13.02;;;4.43;;
10617;SDS011;5356;43.526;26.534;2022-12-11T02:48:47;9.07;;;4.10;;
10617;SDS011;5356;43.526;26.534;2022-12-11T02:51:15;9.63;;;3.72;;
10617;SDS011;5356;43.526;26.534;2022-12-11T02:53:46;9.00;;;4.03;;
10617;SDS011;5356;43.526;26.534;2022-12-11T02:56:17;11.20;;;3.80;;
10617;SDS011;5356;43.526;26.534;2022-12-11T02:58:52;9.52;;;3.47;;
10617;SDS011;5356;43.526;26.534;2022-12-11T03:01:23;6.18;;;3.15;;
10617;SDS011;5356;43.526;26.534;2022-12-11T03:03:50;11.20;;;3.30;;
10617;SDS011;5356;43.526;26.534;2022-12-11T03:06:16;10.57;;;4.70;;
10617;SDS011;5356;43.526;26.534;2022-12-11T03:08:46;8.70;;;3.53;;
10617;SDS011;5356;43.526;26.534;2022-12-11T03:11:15;6.00;;;3.10;;
10617;SDS011;5356;43.526;26.534;2022-12-11T03:13:41;8.82;;;3.20;;
10617;SDS011;5356;43.526;26.534;2022-12-11T03:21:53;9.27;;;2.95;;
10617;SDS011;5356;43.526;26.534;2022-12-11T03:26:55;9.07;;;3.00;;
10617;SDS011;5356;43.526;26.534;2022-12-11T03:29:30;10.10;;;2.60;;
10617;SDS011;5356;43.526;26.534;2022-12-11T03:34:48;8.40;;;2.78;;
10617;SDS011;5356;43.526;26.534;2022-12-11T03:37:19;12.73;;;2.55;;
10617;SDS011;5356;43.526;26.534;2022-12-11T03:39:48;11.80;;;2.67;;
10617;SDS011;5356;43.526;26.534;2022-12-11T03:42:18;4.68;;;2.45;;
10617;SDS011;5356;43.526;26.534;2022-12-11T03:44:47;8.77;;;3.05;;
10617;SDS011;5356;43.526;26.534;2022-12-11T03:47:16;6.55;;;2.03;;
10617;SDS011;5356;43.526;26.534;2022-12-11T03:49:43;5.82;;;3.03;;
10617;SDS011;5356;43.526;26.534;2022-12-11T03:52:11;6.72;;;2.65;;
10617;SDS011;5356;43.526;26.534;2022-12-11T03:54:39;6.65;;;2.60;;
10617;SDS011;5356;43.526;26.534;2022-12-11T03:57:08;6.88;;;3.15;;
10617;SDS011;5356;43.526;26.534;2022-12-11T03:59:38;8.05;;;2.70;;
10617;SDS011;5356;43.526;26.534;2022-12-11T04:02:03;9.90;;;2.88;;
10617;SDS011;5356;43.526;26.534;2022-12-11T04:04:34;8.10;;;2.78;;
10617;SDS011;5356;43.526;26.534;2022-12-11T04:07:01;8.45;;;2.53;;
10617;SDS011;5356;43.526;26.534;2022-12-11T04:09:26;5.13;;;2.33;;
10617;SDS011;5356;43.526;26.534;2022-12-11T04:11:52;9.68;;;3.00;;
10617;SDS011;5356;43.526;26.534;2022-12-11T04:14:17;9.40;;;2.60;;
10617;SDS011;5356;43.526;26.534;2022-12-11T04:17:01;6.88;;;2.83;;
10617;SDS011;5356;43.526;26.534;2022-12-11T04:19:26;5.97;;;2.72;;
10617;SDS011;5356;43.526;26.534;2022-12-11T04:22:11;9.10;;;3.00;;
10617;SDS011;5356;43.526;26.534;2022-12-11T04:24:56;5.88;;;3.28;;
10617;SDS011;5356;43.526;26.534;2022-12-11T04:27:21;7.10;;;3.08;;
10617;SDS011;5356;43.526;26.534;2022-12-11T04:30:07;12.32;;;3.20;;
10617;SDS011;5356;43.526;26.534;2022-12-11T04:32:37;7.72;;;2.80;;
10617;SDS011;5356;43.526;26.534;2022-12-11T04:35:02;10.80;;;2.80;;
10617;SDS011;5356;43.526;26.534;2022-12-11T04:37:28;5.57;;;2.40;;
10617;SDS011;5356;43.526;26.534;2022-12-11T04:39:54;9.35;;;2.40;;
10617;SDS011;5356;43.526;26.534;2022-12-11T04:42:20;7.68;;;2.45;;
10617;SDS011;5356;43.526;26.534;2022-12-11T04:44:45;7.45;;;2.40;;
10617;SDS011;5356;43.526;26.534;2022-12-11T04:47:11;4.75;;;3.20;;
10617;SDS011;5356;43.526;26.534;2022-12-11T04:49:36;7.45;;;3.38;;
10617;SDS011;5356;43.526;26.534;2022-12-11T04:52:02;8.60;;;3.78;;
10617;SDS011;5356;43.526;26.534;2022-12-11T04:54:28;12.57;;;4.32;;
10617;SDS011;5356;43.526;26.534;2022-12-11T04:56:54;19.30;;;6.50;;
10617;SDS011;5356;43.526;26.534;2022-12-11T04:59:20;10.25;;;4.50;;
10617;SDS011;5356;43.526;26.534;2022-12-11T05:01:45;7.85;;;3.35;;
10617;SDS011;5356;43.526;26.534;2022-12-11T05:04:10;17.90;;;9.35;;
10617;SDS011;5356;43.526;26.534;2022-12-11T05:06:36;19.13;;;9.80;;
10617;SDS011;5356;43.526;26.534;2022-12-11T05:09:01;11.85;;;5.95;;
10617;SDS011;5356;43.526;26.534;2022-12-11T05:11:27;14.07;;;6.22;;
10617;SDS011;5356;43.526;26.534;2022-12-11T05:13:53;18.65;;;7.78;;
10617;SDS011;5356;43.526;26.534;2022-12-11T05:16:18;28.70;;;10.95;;
10617;SDS011;5356;43.526;26.534;2022-12-11T05:18:44;15.10;;;5.70;;
10617;SDS011;5356;43.526;26.534;2022-12-11T05:21:10;15.68;;;4.47;;
10617;SDS011;5356;43.526;26.534;2022-12-11T05:23:37;6.75;;;3.03;;
10617;SDS011;5356;43.526;26.534;2022-12-11T05:26:04;14.50;;;5.68;;
10617;SDS011;5356;43.526;26.534;2022-12-11T05:28:37;6.82;;;4.15;;
10617;SDS011;5356;43.526;26.534;2022-12-11T05:31:05;5.50;;;2.22;;
10617;SDS011;5356;43.526;26.534;2022-12-11T05:33:37;7.57;;;2.50;;
10617;SDS011;5356;43.526;26.534;2022-12-11T05:36:02;7.90;;;2.55;;
10617;SDS011;5356;43.526;26.534;2022-12-11T05:38:28;7.05;;;2.78;;
10617;SDS011;5356;43.526;26.534;2022-12-11T05:40:57;5.07;;;1.88;;
10617;SDS011;5356;43.526;26.534;2022-12-11T05:43:25;5.28;;;1.88;;
10617;SDS011;5356;43.526;26.534;2022-12-11T05:45:52;4.80;;;2.42;;
10617;SDS011;5356;43.526;26.534;2022-12-11T05:48:18;4.80;;;2.92;;
10617;SDS011;5356;43.526;26.534;2022-12-11T05:50:43;5.72;;;2.60;;
10617;SDS011;5356;43.526;26.534;2022-12-11T05:53:09;7.25;;;2.72;;
10617;SDS011;5356;43.526;26.534;2022-12-11T05:55:35;5.03;;;2.10;;
10617;SDS011;5356;43.526;26.534;2022-12-11T05:58:00;5.65;;;2.88;;
10617;SDS011;5356;43.526;26.534;2022-12-11T06:00:26;6.22;;;3.03;;
10617;SDS011;5356;43.526;26.534;2022-12-11T06:02:51;8.98;;;4.13;;
10617;SDS011;5356;43.526;26.534;2022-12-11T06:05:17;10.88;;;4.20;;
10617;SDS011;5356;43.526;26.534;2022-12-11T06:07:42;11.63;;;3.60;;
10617;SDS011;5356;43.526;26.534;2022-12-11T06:10:08;8.15;;;4.47;;
10617;SDS011;5356;43.526;26.534;2022-12-11T06:12:34;11.85;;;4.63;;
10617;SDS011;5356;43.526;26.534;2022-12-11T06:14:59;10.70;;;3.55;;
10617;SDS011;5356;43.526;26.534;2022-12-11T06:17:24;10.35;;;3.88;;
10617;SDS011;5356;43.526;26.534;2022-12-11T06:19:50;11.77;;;5.28;;
10617;SDS011;5356;43.526;26.534;2022-12-11T06:22:15;11.43;;;5.03;;
10617;SDS011;5356;43.526;26.534;2022-12-11T06:24:41;23.27;;;9.85;;
10617;SDS011;5356;43.526;26.534;2022-12-11T06:27:06;18.77;;;7.10;;
10617;SDS011;5356;43.526;26.534;2022-12-11T06:29:32;13.20;;;5.20;;
10617;SDS011;5356;43.526;26.534;2022-12-11T06:31:57;21.55;;;9.93;;
10617;SDS011;5356;43.526;26.534;2022-12-11T06:34:23;9.10;;;5.30;;
10617;SDS011;5356;43.526;26.534;2022-12-11T06:36:48;12.70;;;4.72;;
10617;SDS011;5356;43.526;26.534;2022-12-11T06:39:14;9.32;;;5.70;;
10617;SDS011;5356;43.526;26.534;2022-12-11T06:41:39;10.88;;;5.55;;
10617;SDS011;5356;43.526;26.534;2022-12-11T06:44:05;9.07;;;4.45;;
10617;SDS011;5356;43.526;26.534;2022-12-11T06:46:30;12.88;;;7.80;;
10617;SDS011;5356;43.526;26.534;2022-12-11T06:48:56;13.48;;;7.03;;
10617;SDS011;5356;43.526;26.534;2022-12-11T06:51:21;15.65;;;6.90;;
10617;SDS011;5356;43.526;26.534;2022-12-11T06:53:54;16.90;;;6.90;;
10617;SDS011;5356;43.526;26.534;2022-12-11T06:56:20;13.73;;;8.77;;
10617;SDS011;5356;43.526;26.534;2022-12-11T06:58:46;10.07;;;4.95;;
10617;SDS011;5356;43.526;26.534;2022-12-11T07:01:16;9.95;;;4.93;;
10617;SDS011;5356;43.526;26.534;2022-12-11T07:03:43;7.60;;;3.55;;
10617;SDS011;5356;43.526;26.534;2022-12-11T07:06:09;9.80;;;3.22;;
10617;SDS011;5356;43.526;26.534;2022-12-11T07:08:35;7.00;;;2.95;;
10617;SDS011;5356;43.526;26.534;2022-12-11T07:11:01;7.90;;;3.65;;
10617;SDS011;5356;43.526;26.534;2022-12-11T07:13:28;11.82;;;4.35;;
10617;SDS011;5356;43.526;26.534;2022-12-11T07:15:54;12.68;;;3.22;;
10617;SDS011;5356;43.526;26.534;2022-12-11T07:18:19;10.55;;;3.88;;
10617;SDS011;5356;43.526;26.534;2022-12-11T07:20:44;5.43;;;2.95;;
10617;SDS011;5356;43.526;26.534;2022-12-11T07:23:10;6.70;;;3.05;;
10617;SDS011;5356;43.526;26.534;2022-12-11T07:25:36;10.25;;;3.90;;
10617;SDS011;5356;43.526;26.534;2022-12-11T07:28:02;10.77;;;5.15;;
10617;SDS011;5356;43.526;26.534;2022-12-11T07:30:27;7.05;;;4.93;;
10617;SDS011;5356;43.526;26.534;2022-12-11T07:32:52;19.40;;;7.30;;
10617;SDS011;5356;43.526;26.534;2022-12-11T07:35:18;12.20;;;7.03;;
10617;SDS011;5356;43.526;26.534;2022-12-11T07:37:43;34.63;;;18.90;;
10617;SDS011;5356;43.526;26.534;2022-12-11T07:40:10;22.92;;;11.63;;
10617;SDS011;5356;43.526;26.534;2022-12-11T07:42:35;20.55;;;10.32;;
10617;SDS011;5356;43.526;26.534;2022-12-11T07:45:01;11.38;;;7.35;;
10617;SDS011;5356;43.526;26.534;2022-12-11T07:47:26;9.63;;;4.00;;
10617;SDS011;5356;43.526;26.534;2022-12-11T07:49:52;7.72;;;5.13;;
10617;SDS011;5356;43.526;26.534;2022-12-11T07:52:17;6.60;;;4.93;;
10617;SDS011;5356;43.526;26.534;2022-12-11T07:54:43;12.50;;;7.30;;
10617;SDS011;5356;43.526;26.534;2022-12-11T07:57:08;12.57;;;5.55;;
10617;SDS011;5356;43.526;26.534;2022-12-11T07:59:33;8.27;;;4.38;;
10617;SDS011;5356;43.526;26.534;2022-12-11T08:01:59;4.78;;;2.85;;
10617;SDS011;5356;43.526;26.534;2022-12-11T08:04:24;7.13;;;2.90;;
10617;SDS011;5356;43.526;26.534;2022-12-11T08:06:50;6.32;;;2.67;;
10617;SDS011;5356;43.526;26.534;2022-12-11T08:09:15;11.13;;;4.65;;
10617;SDS011;5356;43.526;26.534;2022-12-11T08:11:41;7.10;;;3.58;;
10617;SDS011;5356;43.526;26.534;2022-12-11T08:14:06;8.30;;;4.93;;
10617;SDS011;5356;43.526;26.534;2022-12-11T08:16:32;11.93;;;4.70;;
10617;SDS011;5356;43.526;26.534;2022-12-11T08:18:58;8.15;;;4.40;;
10617;SDS011;5356;43.526;26.534;2022-12-11T08:21:25;9.27;;;6.53;;
10617;SDS011;5356;43.526;26.534;2022-12-11T08:23:52;10.40;;;5.10;;
10617;SDS011;5356;43.526;26.534;2022-12-11T08:26:20;4.97;;;3.92;;
10617;SDS011;5356;43.526;26.534;2022-12-11T08:28:47;8.18;;;3.80;;
10617;SDS011;5356;43.526;26.534;2022-12-11T08:31:12;10.10;;;3.67;;
10617;SDS011;5356;43.526;26.534;2022-12-11T08:33:39;9.07;;;4.18;;
10617;SDS011;5356;43.526;26.534;2022-12-11T08:36:06;9.43;;;4.45;;
10617;SDS011;5356;43.526;26.534;2022-12-11T08:38:34;8.00;;;4.25;;
10617;SDS011;5356;43.526;26.534;2022-12-11T08:41:34;11.02;;;5.40;;
10617;SDS011;5356;43.526;26.534;2022-12-11T08:43:53;6.57;;;3.72;;
10617;SDS011;5356;43.526;26.534;2022-12-11T08:46:22;7.60;;;4.13;;
10617;SDS011;5356;43.526;26.534;2022-12-11T08:48:48;5.40;;;3.75;;
10617;SDS011;5356;43.526;26.534;2022-12-11T08:51:15;6.25;;;3.45;;
10617;SDS011;5356;43.526;26.534;2022-12-11T08:53:44;8.77;;;3.38;;
10617;SDS011;5356;43.526;26.534;2022-12-11T08:56:15;9.25;;;3.05;;
10617;SDS011;5356;43.526;26.534;2022-12-11T08:58:42;6.63;;;3.40;;
10617;SDS011;5356;43.526;26.534;2022-12-11T09:01:09;6.57;;;3.50;;
10617;SDS011;5356;43.526;26.534;2022-12-11T09:03:36;7.75;;;3.83;;
10617;SDS011;5356;43.526;26.534;2022-12-11T09:06:03;8.52;;;3.15;;
10617;SDS011;5356;43.526;26.534;2022-12-11T09:08:33;6.93;;;2.83;;
10617;SDS011;5356;43.526;26.534;2022-12-11T09:11:06;6.10;;;3.13;;
10617;SDS011;5356;43.526;26.534;2022-12-11T09:13:36;8.10;;;2.72;;
10617;SDS011;5356;43.526;26.534;2022-12-11T09:16:03;5.32;;;3.10;;
10617;SDS011;5356;43.526;26.534;2022-12-11T09:18:30;11.02;;;3.28;;
10617;SDS011;5356;43.526;26.534;2022-12-11T09:21:14;5.70;;;2.40;;
10617;SDS011;5356;43.526;26.534;2022-12-11T09:23:42;7.80;;;2.70;;
10617;SDS011;5356;43.526;26.534;2022-12-11T09:26:08;8.43;;;3.28;;
10617;SDS011;5356;43.526;26.534;2022-12-11T09:28:36;6.53;;;3.40;;
10617;SDS011;5356;43.526;26.534;2022-12-11T09:31:15;7.95;;;2.83;;
10617;SDS011;5356;43.526;26.534;2022-12-11T09:33:43;5.05;;;2.33;;
10617;SDS011;5356;43.526;26.534;2022-12-11T09:36:09;7.22;;;2.65;;
10617;SDS011;5356;43.526;26.534;2022-12-11T09:38:36;3.88;;;3.10;;
10617;SDS011;5356;43.526;26.534;2022-12-11T09:41:08;3.88;;;2.47;;
10617;SDS011;5356;43.526;26.534;2022-12-11T09:43:43;6.68;;;3.20;;
10617;SDS011;5356;43.526;26.534;2022-12-11T09:46:14;7.10;;;3.72;;
10617;SDS011;5356;43.526;26.534;2022-12-11T09:48:42;6.65;;;2.53;;
10617;SDS011;5356;43.526;26.534;2022-12-11T09:51:16;7.88;;;2.70;;
10617;SDS011;5356;43.526;26.534;2022-12-11T09:53:43;4.00;;;2.10;;
10617;SDS011;5356;43.526;26.534;2022-12-11T09:56:13;5.03;;;2.80;;
10617;SDS011;5356;43.526;26.534;2022-12-11T10:02:10;4.35;;;2.28;;
10617;SDS011;5356;43.526;26.534;2022-12-11T10:10:28;5.03;;;2.75;;
10617;SDS011;5356;43.526;26.534;2022-12-11T10:13:03;4.03;;;3.05;;
10617;SDS011;5356;43.526;26.534;2022-12-11T10:18:12;4.93;;;2.45;;
10617;SDS011;5356;43.526;26.534;2022-12-11T10:20:41;6.47;;;2.97;;
10617;SDS011;5356;43.526;26.534;2022-12-11T10:23:15;3.67;;;1.70;;
10617;SDS011;5356;43.526;26.534;2022-12-11T10:26:05;1.90;;;1.40;;
10617;SDS011;5356;43.526;26.534;2022-12-11T10:28:51;2.97;;;1.90;;
10617;SDS011;5356;43.526;26.534;2022-12-11T10:34:02;4.68;;;3.00;;
10617;SDS011;5356;43.526;26.534;2022-12-11T10:36:34;4.60;;;2.45;;
10617;SDS011;5356;43.526;26.534;2022-12-11T10:39:03;5.65;;;2.50;;
10617;SDS011;5356;43.526;26.534;2022-12-11T10:41:38;8.80;;;2.13;;
10617;SDS011;5356;43.526;26.534;2022-12-11T10:44:20;32.95;;;15.18;;
10617;SDS011;5356;43.526;26.534;2022-12-11T10:46:48;15.52;;;7.75;;
10617;SDS011;5356;43.526;26.534;2022-12-11T10:49:34;8.65;;;4.18;;
10617;SDS011;5356;43.526;26.534;2022-12-11T10:52:08;7.78;;;3.10;;
10617;SDS011;5356;43.526;26.534;2022-12-11T10:54:36;2.58;;;1.73;;
10617;SDS011;5356;43.526;26.534;2022-12-11T10:57:05;3.60;;;2.03;;
10617;SDS011;5356;43.526;26.534;2022-12-11T10:59:34;3.30;;;1.70;;
10617;SDS011;5356;43.526;26.534;2022-12-11T11:02:04;4.85;;;2.00;;
10617;SDS011;5356;43.526;26.534;2022-12-11T11:04:35;6.07;;;2.30;;
10617;SDS011;5356;43.526;26.534;2022-12-11T11:07:13;4.40;;;1.80;;
10617;SDS011;5356;43.526;26.534;2022-12-11T11:09:43;3.60;;;1.90;;
10617;SDS011;5356;43.526;26.534;2022-12-11T11:12:27;3.47;;;1.85;;
10617;SDS011;5356;43.526;26.534;2022-12-11T11:15:06;3.72;;;1.60;;
10617;SDS011;5356;43.526;26.534;2022-12-11T11:17:41;7.28;;;2.50;;
10617;SDS011;5356;43.526;26.534;2022-12-11T11:20:17;6.97;;;2.45;;
10617;SDS011;5356;43.526;26.534;2022-12-11T11:22:49;5.18;;;2.10;;
10617;SDS011;5356;43.526;26.534;2022-12-11T11:25:21;4.70;;;1.83;;
10617;SDS011;5356;43.526;26.534;2022-12-11T11:28:00;5.07;;;1.60;;
10617;SDS011;5356;43.526;26.534;2022-12-11T11:30:33;8.20;;;2.35;;
10617;SDS011;5356;43.526;26.534;2022-12-11T11:33:11;4.85;;;2.00;;
10617;SDS011;5356;43.526;26.534;2022-12-11T11:35:37;4.25;;;1.80;;
10617;SDS011;5356;43.526;26.534;2022-12-11T11:38:08;3.80;;;1.73;;
10617;SDS011;5356;43.526;26.534;2022-12-11T11:40:43;7.25;;;1.95;;
10617;SDS011;5356;43.526;26.534;2022-12-11T11:43:16;3.03;;;2.28;;
10617;SDS011;5356;43.526;26.534;2022-12-11T11:53:56;2.97;;;1.67;;
10617;SDS011;5356;43.526;26.534;2022-12-11T11:56:26;5.40;;;2.25;;
10617;SDS011;5356;43.526;26.534;2022-12-11T12:04:35;6.53;;;2.83;;
10617;SDS011;5356;43.526;26.534;2022-12-11T12:07:10;7.32;;;2.40;;
10617;SDS011;5356;43.526;26.534;2022-12-11T12:10:00;3.38;;;1.60;;
10617;SDS011;5356;43.526;26.534;2022-12-11T12:23:48;4.25;;;2.30;;
10617;SDS011;5356;43.526;26.534;2022-12-11T12:40:22;7.22;;;4.63;;
10617;SDS011;5356;43.526;26.534;2022-12-11T12:43:25;8.50;;;4.25;;
10617;SDS011;5356;43.526;26.534;2022-12-11T12:48:38;4.68;;;3.15;;
10617;SDS011;5356;43.526;26.534;2022-12-11T12:51:04;8.65;;;3.28;;
10617;SDS011;5356;43.526;26.534;2022-12-11T12:53:32;4.68;;;1.67;;
10617;SDS011;5356;43.526;26.534;2022-12-11T12:56:00;4.90;;;1.88;;
10617;SDS011;5356;43.526;26.534;2022-12-11T13:01:07;4.05;;;2.33;;
10617;SDS011;5356;43.526;26.534;2022-12-11T13:06:45;7.43;;;3.65;;
10617;SDS011;5356;43.526;26.534;2022-12-11T13:09:13;14.18;;;6.45;;
10617;SDS011;5356;43.526;26.534;2022-12-11T13:11:39;16.08;;;6.85;;
10617;SDS011;5356;43.526;26.534;2022-12-11T13:14:07;3.72;;;2.88;;
10617;SDS011;5356;43.526;26.534;2022-12-11T13:16:51;25.83;;;8.75;;
10617;SDS011;5356;43.526;26.534;2022-12-11T13:21:54;8.27;;;4.40;;
10617;SDS011;5356;43.526;26.534;2022-12-11T13:24:25;7.32;;;4.30;;
10617;SDS011;5356;43.526;26.534;2022-12-11T13:26:52;5.18;;;3.08;;
10617;SDS011;5356;43.526;26.534;2022-12-11T13:29:34;12.35;;;5.25;;
10617;SDS011;5356;43.526;26.534;2022-12-11T13:34:37;5.78;;;3.55;;
10617;SDS011;5356;43.526;26.534;2022-12-11T13:37:05;15.63;;;6.75;;
10617;SDS011;5356;43.526;26.534;2022-12-11T13:39:45;5.72;;;3.60;;
10617;SDS011;5356;43.526;26.534;2022-12-11T13:42:22;5.45;;;4.03;;
10617;SDS011;5356;43.526;26.534;2022-12-11T13:44:52;8.13;;;4.60;;
10617;SDS011;5356;43.526;26.534;2022-12-11T13:47:18;19.13;;;7.43;;
10617;SDS011;5356;43.526;26.534;2022-12-11T13:49:45;11.90;;;6.40;;
10617;SDS011;5356;43.526;26.534;2022-12-11T13:52:18;21.33;;;10.65;;
10617;SDS011;5356;43.526;26.534;2022-12-11T13:54:47;20.90;;;11.13;;
10617;SDS011;5356;43.526;26.534;2022-12-11T13:57:15;23.95;;;12.95;;
10617;SDS011;5356;43.526;26.534;2022-12-11T13:59:46;18.02;;;8.68;;
10617;SDS011;5356;43.526;26.534;2022-12-11T14:02:17;19.50;;;9.70;;
10617;SDS011;5356;43.526;26.534;2022-12-11T14:04:50;22.52;;;11.25;;
10617;SDS011;5356;43.526;26.534;2022-12-11T14:07:23;21.33;;;10.43;;
10617;SDS011;5356;43.526;26.534;2022-12-11T14:09:52;20.05;;;11.18;;
10617;SDS011;5356;43.526;26.534;2022-12-11T14:12:24;13.63;;;8.15;;
10617;SDS011;5356;43.526;26.534;2022-12-11T14:14:51;14.07;;;7.50;;
10617;SDS011;5356;43.526;26.534;2022-12-11T14:17:27;15.57;;;8.43;;
10617;SDS011;5356;43.526;26.534;2022-12-11T14:19:55;11.05;;;7.05;;
10617;SDS011;5356;43.526;26.534;2022-12-11T14:22:23;18.35;;;8.60;;
10617;SDS011;5356;43.526;26.534;2022-12-11T14:24:52;13.27;;;7.18;;
10617;SDS011;5356;43.526;26.534;2022-12-11T14:27:23;18.45;;;9.95;;
10617;SDS011;5356;43.526;26.534;2022-12-11T14:29:51;17.77;;;9.10;;
10617;SDS011;5356;43.526;26.534;2022-12-11T14:34:54;12.93;;;8.82;;
10617;SDS011;5356;43.526;26.534;2022-12-11T14:37:20;13.52;;;8.18;;
10617;SDS011;5356;43.526;26.534;2022-12-11T14:42:29;15.13;;;10.23;;
10617;SDS011;5356;43.526;26.534;2022-12-11T14:45:04;15.73;;;10.60;;
10617;SDS011;5356;43.526;26.534;2022-12-11T14:47:40;14.95;;;8.27;;
10617;SDS011;5356;43.526;26.534;2022-12-11T14:52:50;11.82;;;7.15;;
10617;SDS011;5356;43.526;26.534;2022-12-11T14:55:24;11.20;;;7.18;;
10617;SDS011;5356;43.526;26.534;2022-12-11T14:57:59;10.07;;;6.32;;
10617;SDS011;5356;43.526;26.534;2022-12-11T15:00:32;7.32;;;5.13;;
10617;SDS011;5356;43.526;26.534;2022-12-11T15:05:30;5.45;;;3.90;;
10617;SDS011;5356;43.526;26.534;2022-12-11T15:08:00;5.88;;;4.55;;
10617;SDS011;5356;43.526;26.534;2022-12-11T15:13:36;7.78;;;4.38;;
10617;SDS011;5356;43.526;26.534;2022-12-11T15:16:13;5.30;;;4.07;;
10617;SDS011;5356;43.526;26.534;2022-12-11T15:18:40;5.60;;;3.53;;
10617;SDS011;5356;43.526;26.534;2022-12-11T15:21:07;6.45;;;3.83;;
10617;SDS011;5356;43.526;26.534;2022-12-11T15:23:49;6.70;;;3.25;;
10617;SDS011;5356;43.526;26.534;2022-12-11T15:26:17;6.03;;;3.70;;
10617;SDS011;5356;43.526;26.534;2022-12-11T15:28:44;8.63;;;4.03;;
10617;SDS011;5356;43.526;26.534;2022-12-11T15:31:31;7.57;;;3.78;;
10617;SDS011;5356;43.526;26.534;2022-12-11T15:33:57;4.93;;;3.60;;
10617;SDS011;5356;43.526;26.534;2022-12-11T15:36:30;9.63;;;5.03;;
10617;SDS011;5356;43.526;26.534;2022-12-11T15:39:00;7.35;;;4.65;;
10617;SDS011;5356;43.526;26.534;2022-12-11T15:41:27;10.40;;;4.20;;
10617;SDS011;5356;43.526;26.534;2022-12-11T15:43:57;7.43;;;5.05;;
10617;SDS011;5356;43.526;26.534;2022-12-11T15:46:28;9.30;;;6.03;;
10617;SDS011;5356;43.526;26.534;2022-12-11T15:48:54;13.73;;;7.03;;
10617;SDS011;5356;43.526;26.534;2022-12-11T15:51:20;12.55;;;5.85;;
10617;SDS011;5356;43.526;26.534;2022-12-11T15:53:47;9.18;;;5.18;;
10617;SDS011;5356;43.526;26.534;2022-12-11T15:56:15;6.03;;;3.75;;
10617;SDS011;5356;43.526;26.534;2022-12-11T15:58:41;6.85;;;4.63;;
10617;SDS011;5356;43.526;26.534;2022-12-11T16:01:08;4.63;;;3.15;;
10617;SDS011;5356;43.526;26.534;2022-12-11T16:03:34;6.82;;;3.70;;
10617;SDS011;5356;43.526;26.534;2022-12-11T16:06:00;9.60;;;6.32;;
10617;SDS011;5356;43.526;26.534;2022-12-11T16:08:25;12.82;;;6.65;;
10617;SDS011;5356;43.526;26.534;2022-12-11T16:10:52;7.13;;;3.90;;
10617;SDS011;5356;43.526;26.534;2022-12-11T16:13:18;4.93;;;4.28;;
10617;SDS011;5356;43.526;26.534;2022-12-11T16:15:45;4.80;;;3.63;;
10617;SDS011;5356;43.526;26.534;2022-12-11T16:18:13;6.35;;;3.42;;
10617;SDS011;5356;43.526;26.534;2022-12-11T16:20:40;6.03;;;3.72;;
10617;SDS011;5356;43.526;26.534;2022-12-11T16:23:08;7.32;;;3.92;;
10617;SDS011;5356;43.526;26.534;2022-12-11T16:25:36;5.72;;;3.00;;
10617;SDS011;5356;43.526;26.534;2022-12-11T16:28:03;5.03;;;2.67;;
10617;SDS011;5356;43.526;26.534;2022-12-11T16:30:29;5.78;;;3.60;;
10617;SDS011;5356;43.526;26.534;2022-12-11T16:32:55;3.72;;;2.35;;
10617;SDS011;5356;43.526;26.534;2022-12-11T16:35:21;8.07;;;4.38;;
10617;SDS011;5356;43.526;26.534;2022-12-11T16:37:47;8.77;;;5.18;;